Scottsville, South Carolina
Current Conditions -  °F | °C
As of 7:35 PM on Saturday 20 Dec 2014 (Local Time) from KSMS Reporting Station
Overcast Overcast  
Wind Chill: 41°   Ceiling: 2500
Heat Index: 45°   Visibility: 10mi
Dew Point: 41°   Wind: 6mph
Humidity: 87%   Direction: 50°NE
Pressure: 30.25"   Gusts: NA
Location:  34.0634°N, 80.2361°W
Report Text: KSMS 210035Z AUTO 05005KT 10SM OVC025 07/05 A3025 RMK AO2
Loading
Personal Weather Stations






























Interactive Weather Map New forecast layout! Learn more

10-Day Weather Forecast

Advertisements
Track Severe Weather on mobile